Weather reports worldwide

Advertisment
La Molina, Spain (8117): temperature & dewpoint: 12.10.2018 03:00:00 - 18.10.2018 03:00:00 (CEST)La Molina, Spain (8117): wind speed & gusts: 12.10.2018 03:00:00 - 18.10.2018 03:00:00 (CEST)La Molina, Spain (8117): wind direction: 12.10.2018 03:00:00 - 18.10.2018 03:00:00 (CEST)La Molina, Spain (8117): visibility: 12.10.2018 03:00:00 - 18.10.2018 03:00:00 (CEST)La Molina, Spain (8117): sunshine duration: 12.10.2018 03:00:00 - 18.10.2018 03:00:00 (CEST)La Molina, Spain (8117): precipitation: 12.10.2018 03:00:00 - 18.10.2018 03:00:00 (CEST)
Date & Time tt [°C] td [°C] ff [km/h] ff [kn] fx [km/h] fx [kn] dd vv [km] sd [min] rr [mm]
18.10.2018 03:00:00 6,3 5,9 - - - - SW 20 0 0,0
18.10.2018 02:00:00 7,0 6,1 - - - - SE 20 0 -
18.10.2018 01:00:00 8,1 6,7 - - - - S 20 0 0,0
18.10.2018 00:00:00 8,6 6,6 - - - - ENE 20 0 0,0
17.10.2018 23:00:00 8,0 7,3 - - - - S 19 0 0,0
17.10.2018 22:00:00 8,2 6,7 - - - - SSE 20 0 0,0
17.10.2018 21:00:00 8,9 7,7 - - - - SE 20 0 0,0
17.10.2018 20:00:00 9,0 7,5 - - - - SE 20 0 -
17.10.2018 19:00:00 9,6 7,9 - - - - SE 8 0 0,0
17.10.2018 18:00:00 10,9 8,0 - - - - NNW 20 0 0,0
17.10.2018 17:00:00 11,6 6,9 - - - - SSE 20 1 0,0
17.10.2018 16:00:00 12,9 6,9 - - - - W 20 21 0,0
17.10.2018 15:00:00 12,8 7,5 - - - - WSW 20 15 0,0
17.10.2018 14:00:00 11,6 7,9 - - - - WNW 20 4 -
17.10.2018 13:00:00 12,7 6,3 - - - - NNW 20 52 0,0
17.10.2018 12:00:00 11,4 7,1 - - - - W 20 56 0,0
17.10.2018 11:00:00 10,7 6,8 - - - - SSW 20 60 0,0
17.10.2018 10:00:00 7,0 5,5 - - - - SSE 20 14 0,0
17.10.2018 09:00:00 6,9 5,4 - - - - SSW 20 0 0,0
17.10.2018 08:00:00 6,7 5,5 - - - - SSW 20 0 -
17.10.2018 07:00:00 6,6 5,4 - - - - S 20 0 0,0
17.10.2018 06:00:00 6,3 4,9 - - - - S 20 0 0,0
17.10.2018 05:00:00 6,8 5,3 - - - - N 20 0 0,0
17.10.2018 04:00:00 7,0 5,6 - - - - WSW 20 0 0,0
17.10.2018 03:00:00 7,1 5,6 - - - - SSW 20 0 0,0
17.10.2018 02:00:00 7,3 5,3 - - - - WSW 20 0 -
17.10.2018 01:00:00 7,0 5,6 - - - - S 20 0 0,0
17.10.2018 00:00:00 7,0 5,6 - - - - S 20 0 0,0
16.10.2018 23:00:00 7,1 6,2 - - - - SSW 20 0 0,0
16.10.2018 22:00:00 7,0 6,1 - - - - S 20 0 0,0
16.10.2018 21:00:00 7,4 6,2 - - - - SSE 20 0 0,2
16.10.2018 20:00:00 8,0 6,5 - - - - ESE 20 0 -
16.10.2018 19:00:00 8,9 6,9 - - - - ESE 20 0 0,0
16.10.2018 18:00:00 9,9 7,2 - - - - ENE 20 3 0,0
16.10.2018 17:00:00 10,8 6,0 - - - - E 20 48 0,0
16.10.2018 16:00:00 9,7 7,0 - - - - SE 20 17 0,2
16.10.2018 15:00:00 10,1 6,6 - - - - SSE 20 0 0,0
16.10.2018 14:00:00 10,5 6,8 - - - - NNW 20 23 -
16.10.2018 13:00:00 10,9 8,0 - - - - NNW 20 55 0,0
16.10.2018 12:00:00 10,8 6,4 - - - - WSW 20 57 0,0
16.10.2018 11:00:00 8,9 4,9 - - - - SSE 20 47 0,0
16.10.2018 10:00:00 5,9 4,7 - - - - SE 19 1 0,0
16.10.2018 09:00:00 5,1 3,8 - - - - SE 20 0 0,0
16.10.2018 08:00:00 5,3 3,5 - - - - SE 20 0 -
16.10.2018 07:00:00 3,9 3,3 - - - - SE 20 0 0,0
16.10.2018 06:00:00 4,5 3,5 - - - - E 20 0 0,0
16.10.2018 05:00:00 4,3 3,7 - - - - SE 20 0 0,0
16.10.2018 04:00:00 4,8 4,2 - - - - SE 20 0 0,0
16.10.2018 03:00:00 5,2 4,6 - - - - ESE 20 0 0,0
16.10.2018 02:00:00 6,4 6,0 - - - - S 20 0 -
16.10.2018 01:00:00 6,6 5,7 - - - - SE 20 0 0,0
16.10.2018 00:00:00 6,2 5,3 - - - - SSE 20 0 0,0
15.10.2018 23:00:00 6,6 6,2 - - - - S 19 0 0,0
15.10.2018 22:00:00 6,7 6,3 - - - - ESE 20 0 0,0
15.10.2018 21:00:00 6,7 6,3 - - - - W 11 0 0,2
15.10.2018 20:00:00 6,9 5,9 - - - - ENE 7 0 -
15.10.2018 19:00:00 7,0 6,1 - - - - ENE 12 0 0,4
15.10.2018 18:00:00 - - - - - - - - - -
15.10.2018 17:00:00 7,7 6,2 - - - - - 20 0 0,0
15.10.2018 16:00:00 7,6 6,5 - - - - - 20 0 0,0
15.10.2018 15:00:00 7,0 5,6 - - - - - 7 0 1,8
15.10.2018 14:00:00 9,0 6,3 - - - - - 20 15 -
15.10.2018 13:00:00 8,0 6,3 - - - - - 20 2 0,0
15.10.2018 12:00:00 7,7 6,2 - - - - - 20 0 0,0
15.10.2018 11:00:00 7,1 7,0 - - - - - 4,0 0 4,2
15.10.2018 10:00:00 7,2 6,6 - - - - - 3,1 0 1,6
15.10.2018 09:00:00 6,7 5,8 - - - - - 18 0 0,0
15.10.2018 08:00:00 7,1 5,3 - - - - - 15 0 -
15.10.2018 07:00:00 7,6 5,9 - - - - - 20 0 0,0
15.10.2018 06:00:00 7,7 6,3 - - - - - 20 0 0,0
15.10.2018 05:00:00 7,3 6,2 - - - - - 19 0 8,4
15.10.2018 04:00:00 8,3 7,7 - - - - - 1,7 0 5,6
15.10.2018 03:00:00 8,7 7,6 - - - - - 2,1 0 6,6
15.10.2018 02:00:00 9,4 8,8 - - - - - 0,7 0 -
15.10.2018 01:00:00 9,3 8,5 - - - - - 2,0 0 8,8
15.10.2018 00:00:00 9,0 8,3 18 10 37 20 SSE 1,9 0 7,2
14.10.2018 23:00:00 8,4 7,7 11 6 40 21 S 2,5 0 6,0
14.10.2018 22:00:00 8,8 8,3 9 5 39 21 S 2,1 0 9,6
14.10.2018 21:00:00 9,3 8,5 14 7 28 15 SE 1,9 0 8,0
14.10.2018 20:00:00 9,4 8,7 13 7 46 25 SSE 12 0 -
14.10.2018 19:00:00 9,7 8,8 - - 48 26 ESE 17 0 0,8
14.10.2018 18:00:00 10,1 9,0 - - 41 22 SE 1,8 0 8,0
14.10.2018 17:00:00 10,7 8,6 - - - - - 20 0 0,8
14.10.2018 16:00:00 10,3 8,9 18 10 47 26 ESE 20 0 4,8
14.10.2018 15:00:00 10,4 9,3 12 7 42 23 E 13 0 2,8
14.10.2018 14:00:00 10,6 9,2 11 6 50 27 E 20 0 -
14.10.2018 13:00:00 10,1 9,0 9 5 34 18 E 5 0 1,6
14.10.2018 12:00:00 10,0 8,9 10 6 36 19 E 19 0 0,0
14.10.2018 11:00:00 10,1 8,9 9 5 37 20 ESE 15 0 0,2
14.10.2018 10:00:00 9,9 8,7 6 4 19 11 NNE 20 0 0,0
14.10.2018 09:00:00 9,9 8,5 7 4 19 10 NNW 20 0 0,0
14.10.2018 08:00:00 9,8 8,1 6 4 33 18 NE 20 0 -
14.10.2018 07:00:00 9,9 8,1 9 5 28 15 WNW 20 0 0,0
14.10.2018 06:00:00 10,0 8,3 9 5 27 14 N 20 0 0,0
14.10.2018 05:00:00 10,1 8,5 12 7 34 18 NW 20 0 0,0
14.10.2018 04:00:00 10,3 8,8 11 6 26 14 E 20 0 0,0
14.10.2018 03:00:00 10,7 9,2 9 5 28 15 SW 20 0 0,4
14.10.2018 02:00:00 10,9 9,3 6 3 29 16 SSW 20 0 -
14.10.2018 01:00:00 10,9 9,9 8 4 28 15 SW 16 0 0,8
14.10.2018 00:00:00 11,2 10,3 6 3 27 15 WSW 6 0 0,6
13.10.2018 23:00:00 11,8 10,5 4 2 16 9 SE 4,2 0 1,4
13.10.2018 22:00:00 12,0 10,8 3 2 22 12 SSW 3,6 0 0,2
13.10.2018 21:00:00 12,5 8,9 5 3 15 8 S 20 0 0,0
13.10.2018 20:00:00 12,6 8,9 11 6 26 14 SSE 20 0 -
13.10.2018 19:00:00 13,1 9,2 10 5 23 12 S 20 0 0,0
13.10.2018 18:00:00 13,6 9,4 9 5 20 11 S 20 0 0,0
13.10.2018 17:00:00 14,2 9,7 10 5 20 11 S 20 1 0,0
13.10.2018 16:00:00 14,5 9,6 9 5 23 13 S 20 26 0,0
13.10.2018 15:00:00 17,2 9,6 6 3 29 15 W 20 60 0,0
13.10.2018 14:00:00 - - - - - - - - - -
13.10.2018 13:00:00 15,5 10,0 8 4 14 7 NNW 20 48 0,0
13.10.2018 12:00:00 15,5 10,3 6 3 13 7 N 20 56 0,0
13.10.2018 11:00:00 13,9 9,7 6 4 12 6 ENE 20 28 0,0
13.10.2018 10:00:00 11,0 9,3 4 2 11 6 E 20 21 0,0
13.10.2018 09:00:00 8,5 8,1 4 2 13 7 S 20 0 0,0
13.10.2018 08:00:00 9,0 8,7 9 5 13 7 ESE 20 0 -
13.10.2018 07:00:00 7,9 7,1 4 2 8 4 SE 20 0 0,0
13.10.2018 06:00:00 7,7 6,8 4 2 10 5 SE 20 0 0,0
13.10.2018 05:00:00 7,9 7,0 6 3 9 5 ESE 20 0 0,0
13.10.2018 04:00:00 8,1 7,0 5 3 11 6 SE 20 0 0,0
13.10.2018 03:00:00 9,0 8,5 5 3 11 6 ESE 20 0 0,0
13.10.2018 02:00:00 9,3 8,5 6 3 11 6 ESE 20 0 -
13.10.2018 01:00:00 9,1 8,4 5 3 10 5 ESE 20 0 0,0
13.10.2018 00:00:00 9,5 8,3 6 3 10 6 ESE 20 0 0,0
12.10.2018 23:00:00 9,5 7,6 5 3 12 6 SE 20 0 0,0
12.10.2018 22:00:00 10,3 8,1 5 3 11 6 SE 20 0 0,0
12.10.2018 21:00:00 11,0 7,8 5 3 12 7 SSE 20 0 0,0
12.10.2018 20:00:00 12,0 8,3 4 2 16 9 S 20 0 -
12.10.2018 19:00:00 14,0 8,8 5 3 19 11 WSW 20 0 0,0
12.10.2018 18:00:00 15,1 8,5 10 6 21 11 SW 20 23 0,0
12.10.2018 17:00:00 15,3 8,9 8 4 21 11 W 20 12 0,0
12.10.2018 16:00:00 15,8 10,3 6 3 15 8 N 20 8 0,0
12.10.2018 15:00:00 17,1 10,0 4 2 15 8 WSW 20 32 0,0
12.10.2018 14:00:00 17,3 12,0 6 3 19 11 NNW 20 60 -
12.10.2018 13:00:00 16,8 11,3 10 6 16 9 NNW 20 60 0,0
12.10.2018 12:00:00 16,0 10,5 3 2 11 6 N 20 57 0,0
12.10.2018 11:00:00 15,5 9,6 5 3 - - NE 20 60 0,0
12.10.2018 10:00:00 11,2 9,1 - - - - - 20 22 0,0
12.10.2018 09:00:00 9,8 8,1 - - - - - 20 0 0,0
12.10.2018 08:00:00 9,7 8,1 - - - - - 20 0 -
12.10.2018 07:00:00 9,1 7,7 - - - - - 20 0 0,0
12.10.2018 06:00:00 9,9 8,2 - - - - - 20 0 0,0
12.10.2018 05:00:00 9,7 7,8 - - - - - 20 0 0,0
12.10.2018 04:00:00 10,2 8,3 - - - - - 20 0 0,0
12.10.2018 03:00:00 10,0 7,9 - - - - - 20 0 0,0

tt = temperature
td = dewpoint
ff = wind speed
fx = gusts
dd = wind direction
vv = visibility
sd = sunshine duration
rr = precipitation

Next stations